sensor_id;sensor_type;location;lat;lon;timestamp;P1;durP1;ratioP1;P2;durP2;ratioP2
23123;SDS011;11731;48.592;8.858;2022-11-20T00:01:38;3.83;;;3.17;;
23123;SDS011;11731;48.592;8.858;2022-11-20T00:04:05;4.13;;;2.97;;
23123;SDS011;11731;48.592;8.858;2022-11-20T00:06:36;4.07;;;3.00;;
23123;SDS011;11731;48.592;8.858;2022-11-20T00:09:04;3.57;;;3.00;;
23123;SDS011;11731;48.592;8.858;2022-11-20T00:11:32;3.47;;;2.80;;
23123;SDS011;11731;48.592;8.858;2022-11-20T00:14:00;5.57;;;3.33;;
23123;SDS011;11731;48.592;8.858;2022-11-20T00:16:29;3.93;;;3.30;;
23123;SDS011;11731;48.592;8.858;2022-11-20T00:18:57;5.10;;;3.27;;
23123;SDS011;11731;48.592;8.858;2022-11-20T00:21:25;7.67;;;4.23;;
23123;SDS011;11731;48.592;8.858;2022-11-20T00:23:53;4.77;;;3.77;;
23123;SDS011;11731;48.592;8.858;2022-11-20T00:26:22;5.97;;;5.00;;
23123;SDS011;11731;48.592;8.858;2022-11-20T00:28:54;7.63;;;4.60;;
23123;SDS011;11731;48.592;8.858;2022-11-20T00:31:23;5.27;;;4.50;;
23123;SDS011;11731;48.592;8.858;2022-11-20T00:33:50;4.90;;;3.67;;
23123;SDS011;11731;48.592;8.858;2022-11-20T00:36:18;5.07;;;4.30;;
23123;SDS011;11731;48.592;8.858;2022-11-20T00:38:46;6.27;;;4.73;;
23123;SDS011;11731;48.592;8.858;2022-11-20T00:41:17;7.23;;;4.87;;
23123;SDS011;11731;48.592;8.858;2022-11-20T00:43:44;6.50;;;4.57;;
23123;SDS011;11731;48.592;8.858;2022-11-20T00:46:13;6.00;;;3.90;;
23123;SDS011;11731;48.592;8.858;2022-11-20T00:48:42;8.53;;;4.43;;
23123;SDS011;11731;48.592;8.858;2022-11-20T00:51:09;5.37;;;3.70;;
23123;SDS011;11731;48.592;8.858;2022-11-20T00:53:39;3.83;;;3.37;;
23123;SDS011;11731;48.592;8.858;2022-11-20T00:56:06;4.43;;;3.97;;
23123;SDS011;11731;48.592;8.858;2022-11-20T00:58:36;4.00;;;3.30;;
23123;SDS011;11731;48.592;8.858;2022-11-20T01:01:05;5.33;;;3.47;;
23123;SDS011;11731;48.592;8.858;2022-11-20T01:03:36;3.27;;;2.77;;
23123;SDS011;11731;48.592;8.858;2022-11-20T01:06:04;5.43;;;3.40;;
23123;SDS011;11731;48.592;8.858;2022-11-20T01:08:34;5.23;;;3.67;;
23123;SDS011;11731;48.592;8.858;2022-11-20T01:11:02;5.37;;;3.83;;
23123;SDS011;11731;48.592;8.858;2022-11-20T01:13:30;4.57;;;3.50;;
23123;SDS011;11731;48.592;8.858;2022-11-20T01:16:04;3.50;;;2.63;;
23123;SDS011;11731;48.592;8.858;2022-11-20T01:18:32;3.60;;;2.93;;
23123;SDS011;11731;48.592;8.858;2022-11-20T01:21:01;4.43;;;3.10;;
23123;SDS011;11731;48.592;8.858;2022-11-20T01:23:32;3.70;;;3.27;;
23123;SDS011;11731;48.592;8.858;2022-11-20T01:26:00;8.43;;;3.43;;
23123;SDS011;11731;48.592;8.858;2022-11-20T01:28:28;3.70;;;2.77;;
23123;SDS011;11731;48.592;8.858;2022-11-20T01:30:57;3.60;;;3.30;;
23123;SDS011;11731;48.592;8.858;2022-11-20T01:33:25;5.00;;;3.87;;
23123;SDS011;11731;48.592;8.858;2022-11-20T01:35:52;5.27;;;3.63;;
23123;SDS011;11731;48.592;8.858;2022-11-20T01:38:20;4.43;;;3.20;;
23123;SDS011;11731;48.592;8.858;2022-11-20T01:40:53;4.47;;;3.17;;
23123;SDS011;11731;48.592;8.858;2022-11-20T01:43:21;5.73;;;3.80;;
23123;SDS011;11731;48.592;8.858;2022-11-20T01:48:50;4.37;;;3.20;;
23123;SDS011;11731;48.592;8.858;2022-11-20T01:51:23;5.07;;;3.50;;
23123;SDS011;11731;48.592;8.858;2022-11-20T01:53:57;8.00;;;3.50;;
23123;SDS011;11731;48.592;8.858;2022-11-20T01:56:30;8.23;;;3.87;;
23123;SDS011;11731;48.592;8.858;2022-11-20T01:58:59;6.50;;;3.90;;
23123;SDS011;11731;48.592;8.858;2022-11-20T02:01:30;8.00;;;4.30;;
23123;SDS011;11731;48.592;8.858;2022-11-20T02:03:57;8.60;;;4.60;;
23123;SDS011;11731;48.592;8.858;2022-11-20T02:06:25;8.17;;;5.00;;
23123;SDS011;11731;48.592;8.858;2022-11-20T02:08:54;7.17;;;4.53;;
23123;SDS011;11731;48.592;8.858;2022-11-20T02:11:23;7.27;;;4.47;;
23123;SDS011;11731;48.592;8.858;2022-11-20T02:13:50;8.30;;;4.63;;
23123;SDS011;11731;48.592;8.858;2022-11-20T02:16:17;9.27;;;5.00;;
23123;SDS011;11731;48.592;8.858;2022-11-20T02:18:47;8.83;;;5.37;;
23123;SDS011;11731;48.592;8.858;2022-11-20T02:21:20;7.73;;;4.70;;
23123;SDS011;11731;48.592;8.858;2022-11-20T02:24:04;6.00;;;3.80;;
23123;SDS011;11731;48.592;8.858;2022-11-20T02:26:35;6.67;;;4.03;;
23123;SDS011;11731;48.592;8.858;2022-11-20T02:29:07;7.60;;;4.40;;
23123;SDS011;11731;48.592;8.858;2022-11-20T02:31:35;7.10;;;4.60;;
23123;SDS011;11731;48.592;8.858;2022-11-20T02:34:04;8.03;;;3.60;;
23123;SDS011;11731;48.592;8.858;2022-11-20T02:36:31;6.27;;;4.10;;
23123;SDS011;11731;48.592;8.858;2022-11-20T02:39:04;6.40;;;4.07;;
23123;SDS011;11731;48.592;8.858;2022-11-20T02:41:32;8.20;;;4.13;;
23123;SDS011;11731;48.592;8.858;2022-11-20T02:44:00;7.40;;;3.90;;
23123;SDS011;11731;48.592;8.858;2022-11-20T02:46:27;5.97;;;4.00;;
23123;SDS011;11731;48.592;8.858;2022-11-20T02:48:57;7.63;;;4.27;;
23123;SDS011;11731;48.592;8.858;2022-11-20T02:51:24;7.17;;;4.30;;
23123;SDS011;11731;48.592;8.858;2022-11-20T02:53:51;4.53;;;3.83;;
23123;SDS011;11731;48.592;8.858;2022-11-20T02:56:19;7.23;;;4.13;;
23123;SDS011;11731;48.592;8.858;2022-11-20T02:58:46;7.50;;;4.37;;
23123;SDS011;11731;48.592;8.858;2022-11-20T03:01:13;5.70;;;3.73;;
23123;SDS011;11731;48.592;8.858;2022-11-20T03:03:40;5.30;;;4.27;;
23123;SDS011;11731;48.592;8.858;2022-11-20T03:06:07;7.33;;;4.40;;
23123;SDS011;11731;48.592;8.858;2022-11-20T03:08:34;7.27;;;3.87;;
23123;SDS011;11731;48.592;8.858;2022-11-20T03:11:02;7.03;;;3.90;;
23123;SDS011;11731;48.592;8.858;2022-11-20T03:13:31;7.40;;;4.10;;
23123;SDS011;11731;48.592;8.858;2022-11-20T03:16:04;7.77;;;4.47;;
23123;SDS011;11731;48.592;8.858;2022-11-20T03:18:34;8.17;;;4.37;;
23123;SDS011;11731;48.592;8.858;2022-11-20T03:21:01;5.13;;;4.10;;
23123;SDS011;11731;48.592;8.858;2022-11-20T03:23:28;5.30;;;4.30;;
23123;SDS011;11731;48.592;8.858;2022-11-20T03:26:06;5.23;;;3.97;;
23123;SDS011;11731;48.592;8.858;2022-11-20T03:28:36;5.03;;;4.10;;
23123;SDS011;11731;48.592;8.858;2022-11-20T03:31:09;5.97;;;4.07;;
23123;SDS011;11731;48.592;8.858;2022-11-20T03:33:37;6.70;;;4.30;;
23123;SDS011;11731;48.592;8.858;2022-11-20T03:36:06;7.17;;;4.30;;
23123;SDS011;11731;48.592;8.858;2022-11-20T03:38:34;8.67;;;5.40;;
23123;SDS011;11731;48.592;8.858;2022-11-20T03:41:01;8.67;;;4.97;;
23123;SDS011;11731;48.592;8.858;2022-11-20T03:46:02;12.20;;;7.27;;
23123;SDS011;11731;48.592;8.858;2022-11-20T03:48:30;8.50;;;5.07;;
23123;SDS011;11731;48.592;8.858;2022-11-20T03:53:43;6.27;;;4.40;;
23123;SDS011;11731;48.592;8.858;2022-11-20T03:56:12;4.57;;;3.80;;
23123;SDS011;11731;48.592;8.858;2022-11-20T03:58:41;7.20;;;4.10;;
23123;SDS011;11731;48.592;8.858;2022-11-20T04:01:11;5.23;;;4.10;;
23123;SDS011;11731;48.592;8.858;2022-11-20T04:03:40;5.40;;;4.00;;
23123;SDS011;11731;48.592;8.858;2022-11-20T04:06:08;4.50;;;4.03;;
23123;SDS011;11731;48.592;8.858;2022-11-20T04:08:37;7.13;;;4.90;;
23123;SDS011;11731;48.592;8.858;2022-11-20T04:11:16;7.67;;;4.80;;
23123;SDS011;11731;48.592;8.858;2022-11-20T04:13:46;4.93;;;3.73;;
23123;SDS011;11731;48.592;8.858;2022-11-20T04:16:15;6.43;;;4.30;;
23123;SDS011;11731;48.592;8.858;2022-11-20T04:18:43;4.90;;;3.97;;
23123;SDS011;11731;48.592;8.858;2022-11-20T04:21:11;4.93;;;3.90;;
23123;SDS011;11731;48.592;8.858;2022-11-20T04:23:38;5.53;;;4.07;;
23123;SDS011;11731;48.592;8.858;2022-11-20T04:26:06;6.07;;;4.10;;
23123;SDS011;11731;48.592;8.858;2022-11-20T04:28:34;5.10;;;4.07;;
23123;SDS011;11731;48.592;8.858;2022-11-20T04:31:02;4.33;;;3.77;;
23123;SDS011;11731;48.592;8.858;2022-11-20T04:33:31;4.57;;;3.67;;
23123;SDS011;11731;48.592;8.858;2022-11-20T04:36:02;4.50;;;3.40;;
23123;SDS011;11731;48.592;8.858;2022-11-20T04:38:31;4.50;;;3.60;;
23123;SDS011;11731;48.592;8.858;2022-11-20T04:40:58;4.23;;;3.83;;
23123;SDS011;11731;48.592;8.858;2022-11-20T04:43:26;6.80;;;3.77;;
23123;SDS011;11731;48.592;8.858;2022-11-20T04:45:53;5.43;;;3.67;;
23123;SDS011;11731;48.592;8.858;2022-11-20T04:48:21;6.83;;;4.20;;
23123;SDS011;11731;48.592;8.858;2022-11-20T04:50:49;4.67;;;3.77;;
23123;SDS011;11731;48.592;8.858;2022-11-20T04:53:16;5.30;;;4.23;;
23123;SDS011;11731;48.592;8.858;2022-11-20T04:55:44;6.43;;;4.47;;
23123;SDS011;11731;48.592;8.858;2022-11-20T04:58:11;6.70;;;5.03;;
23123;SDS011;11731;48.592;8.858;2022-11-20T05:00:39;8.07;;;4.53;;
23123;SDS011;11731;48.592;8.858;2022-11-20T05:03:06;6.13;;;5.13;;
23123;SDS011;11731;48.592;8.858;2022-11-20T05:05:33;5.33;;;4.30;;
23123;SDS011;11731;48.592;8.858;2022-11-20T05:08:01;5.17;;;4.47;;
23123;SDS011;11731;48.592;8.858;2022-11-20T05:10:28;7.43;;;3.93;;
23123;SDS011;11731;48.592;8.858;2022-11-20T05:12:56;4.90;;;4.10;;
23123;SDS011;11731;48.592;8.858;2022-11-20T05:15:23;4.60;;;4.10;;
23123;SDS011;11731;48.592;8.858;2022-11-20T05:17:50;4.20;;;3.80;;
23123;SDS011;11731;48.592;8.858;2022-11-20T05:20:26;5.53;;;4.10;;
23123;SDS011;11731;48.592;8.858;2022-11-20T05:22:56;5.93;;;3.70;;
23123;SDS011;11731;48.592;8.858;2022-11-20T05:25:24;4.60;;;3.63;;
23123;SDS011;11731;48.592;8.858;2022-11-20T05:27:51;4.40;;;3.70;;
23123;SDS011;11731;48.592;8.858;2022-11-20T05:30:19;4.27;;;3.60;;
23123;SDS011;11731;48.592;8.858;2022-11-20T05:32:46;6.17;;;4.43;;
23123;SDS011;11731;48.592;8.858;2022-11-20T05:35:13;4.57;;;3.53;;
23123;SDS011;11731;48.592;8.858;2022-11-20T05:37:39;4.90;;;3.30;;
23123;SDS011;11731;48.592;8.858;2022-11-20T05:40:07;3.77;;;3.27;;
23123;SDS011;11731;48.592;8.858;2022-11-20T05:42:36;4.60;;;3.30;;
23123;SDS011;11731;48.592;8.858;2022-11-20T05:45:03;4.50;;;3.50;;
23123;SDS011;11731;48.592;8.858;2022-11-20T05:47:32;4.07;;;3.67;;
23123;SDS011;11731;48.592;8.858;2022-11-20T05:50:00;4.87;;;3.57;;
23123;SDS011;11731;48.592;8.858;2022-11-20T05:52:28;4.17;;;3.40;;
23123;SDS011;11731;48.592;8.858;2022-11-20T05:54:55;4.20;;;3.50;;
23123;SDS011;11731;48.592;8.858;2022-11-20T05:57:21;4.93;;;3.70;;
23123;SDS011;11731;48.592;8.858;2022-11-20T05:59:50;4.03;;;2.83;;
23123;SDS011;11731;48.592;8.858;2022-11-20T06:02:16;3.50;;;3.10;;
23123;SDS011;11731;48.592;8.858;2022-11-20T06:04:43;6.37;;;3.93;;
23123;SDS011;11731;48.592;8.858;2022-11-20T06:07:10;3.43;;;2.90;;
23123;SDS011;11731;48.592;8.858;2022-11-20T06:09:37;4.67;;;3.17;;
23123;SDS011;11731;48.592;8.858;2022-11-20T06:12:04;4.63;;;2.87;;
23123;SDS011;11731;48.592;8.858;2022-11-20T06:14:32;6.60;;;3.03;;
23123;SDS011;11731;48.592;8.858;2022-11-20T06:17:00;3.97;;;3.00;;
23123;SDS011;11731;48.592;8.858;2022-11-20T06:19:27;3.80;;;3.27;;
23123;SDS011;11731;48.592;8.858;2022-11-20T06:21:54;3.90;;;3.40;;
23123;SDS011;11731;48.592;8.858;2022-11-20T06:24:27;4.13;;;3.73;;
23123;SDS011;11731;48.592;8.858;2022-11-20T06:26:54;6.47;;;3.40;;
23123;SDS011;11731;48.592;8.858;2022-11-20T06:29:20;4.57;;;3.73;;
23123;SDS011;11731;48.592;8.858;2022-11-20T06:31:47;6.53;;;4.30;;
23123;SDS011;11731;48.592;8.858;2022-11-20T06:34:19;4.20;;;3.80;;
23123;SDS011;11731;48.592;8.858;2022-11-20T06:36:45;5.23;;;2.90;;
23123;SDS011;11731;48.592;8.858;2022-11-20T06:39:12;5.03;;;3.00;;
23123;SDS011;11731;48.592;8.858;2022-11-20T06:41:39;3.70;;;3.20;;
23123;SDS011;11731;48.592;8.858;2022-11-20T06:44:06;3.97;;;3.37;;
23123;SDS011;11731;48.592;8.858;2022-11-20T06:46:33;3.70;;;3.17;;
23123;SDS011;11731;48.592;8.858;2022-11-20T06:49:00;3.50;;;2.90;;
23123;SDS011;11731;48.592;8.858;2022-11-20T06:51:28;3.63;;;2.83;;
23123;SDS011;11731;48.592;8.858;2022-11-20T06:53:56;3.50;;;3.20;;
23123;SDS011;11731;48.592;8.858;2022-11-20T06:56:23;4.70;;;3.07;;
23123;SDS011;11731;48.592;8.858;2022-11-20T06:58:49;4.27;;;2.90;;
23123;SDS011;11731;48.592;8.858;2022-11-20T07:01:16;5.13;;;3.70;;
23123;SDS011;11731;48.592;8.858;2022-11-20T07:03:43;3.63;;;3.20;;
23123;SDS011;11731;48.592;8.858;2022-11-20T07:06:10;4.10;;;3.60;;
23123;SDS011;11731;48.592;8.858;2022-11-20T07:08:38;3.70;;;3.13;;
23123;SDS011;11731;48.592;8.858;2022-11-20T07:11:05;4.90;;;3.30;;
23123;SDS011;11731;48.592;8.858;2022-11-20T07:13:33;3.60;;;3.00;;
23123;SDS011;11731;48.592;8.858;2022-11-20T07:16:00;3.97;;;3.30;;
23123;SDS011;11731;48.592;8.858;2022-11-20T07:18:28;3.90;;;3.20;;
23123;SDS011;11731;48.592;8.858;2022-11-20T07:20:55;3.50;;;3.10;;
23123;SDS011;11731;48.592;8.858;2022-11-20T07:23:22;3.40;;;2.73;;
23123;SDS011;11731;48.592;8.858;2022-11-20T07:25:50;4.13;;;3.40;;
23123;SDS011;11731;48.592;8.858;2022-11-20T07:28:17;3.73;;;3.23;;
23123;SDS011;11731;48.592;8.858;2022-11-20T07:30:52;4.60;;;3.73;;
23123;SDS011;11731;48.592;8.858;2022-11-20T07:33:19;3.80;;;3.20;;
23123;SDS011;11731;48.592;8.858;2022-11-20T07:35:46;3.93;;;2.83;;
23123;SDS011;11731;48.592;8.858;2022-11-20T07:38:13;2.83;;;2.60;;
23123;SDS011;11731;48.592;8.858;2022-11-20T07:40:40;3.50;;;2.90;;
23123;SDS011;11731;48.592;8.858;2022-11-20T07:43:08;3.47;;;2.77;;
23123;SDS011;11731;48.592;8.858;2022-11-20T07:45:36;3.67;;;2.80;;
23123;SDS011;11731;48.592;8.858;2022-11-20T07:48:04;3.37;;;2.77;;
23123;SDS011;11731;48.592;8.858;2022-11-20T07:50:31;4.17;;;3.23;;
23123;SDS011;11731;48.592;8.858;2022-11-20T07:53:01;4.73;;;3.50;;
23123;SDS011;11731;48.592;8.858;2022-11-20T07:55:29;4.87;;;2.73;;
23123;SDS011;11731;48.592;8.858;2022-11-20T07:57:56;3.67;;;2.30;;
23123;SDS011;11731;48.592;8.858;2022-11-20T08:00:25;2.40;;;2.20;;
23123;SDS011;11731;48.592;8.858;2022-11-20T08:02:52;2.03;;;1.83;;
23123;SDS011;11731;48.592;8.858;2022-11-20T08:05:19;2.40;;;2.07;;
23123;SDS011;11731;48.592;8.858;2022-11-20T08:07:47;2.30;;;1.90;;
23123;SDS011;11731;48.592;8.858;2022-11-20T08:10:14;2.50;;;2.10;;
23123;SDS011;11731;48.592;8.858;2022-11-20T08:12:45;3.43;;;2.10;;
23123;SDS011;11731;48.592;8.858;2022-11-20T08:15:32;2.20;;;1.97;;
23123;SDS011;11731;48.592;8.858;2022-11-20T08:18:00;3.67;;;2.37;;
23123;SDS011;11731;48.592;8.858;2022-11-20T08:20:28;3.23;;;2.03;;
23123;SDS011;11731;48.592;8.858;2022-11-20T08:22:58;4.20;;;2.10;;
23123;SDS011;11731;48.592;8.858;2022-11-20T08:25:27;2.80;;;2.17;;
23123;SDS011;11731;48.592;8.858;2022-11-20T08:27:56;3.00;;;2.20;;
23123;SDS011;11731;48.592;8.858;2022-11-20T08:30:23;2.77;;;2.00;;
23123;SDS011;11731;48.592;8.858;2022-11-20T08:32:51;2.13;;;1.93;;
23123;SDS011;11731;48.592;8.858;2022-11-20T08:35:18;2.37;;;1.73;;
23123;SDS011;11731;48.592;8.858;2022-11-20T08:37:46;2.17;;;1.70;;
23123;SDS011;11731;48.592;8.858;2022-11-20T08:40:13;1.80;;;1.57;;
23123;SDS011;11731;48.592;8.858;2022-11-20T08:42:45;1.53;;;1.43;;
23123;SDS011;11731;48.592;8.858;2022-11-20T08:45:12;1.03;;;0.97;;
23123;SDS011;11731;48.592;8.858;2022-11-20T08:47:39;1.13;;;1.03;;
23123;SDS011;11731;48.592;8.858;2022-11-20T08:50:08;1.97;;;1.07;;
23123;SDS011;11731;48.592;8.858;2022-11-20T08:52:36;1.20;;;1.00;;
23123;SDS011;11731;48.592;8.858;2022-11-20T08:55:03;1.50;;;1.10;;
23123;SDS011;11731;48.592;8.858;2022-11-20T08:57:31;1.27;;;0.87;;
23123;SDS011;11731;48.592;8.858;2022-11-20T08:59:58;0.77;;;0.77;;
23123;SDS011;11731;48.592;8.858;2022-11-20T09:02:25;0.80;;;0.80;;
23123;SDS011;11731;48.592;8.858;2022-11-20T09:04:52;0.97;;;0.80;;
23123;SDS011;11731;48.592;8.858;2022-11-20T09:07:21;0.97;;;0.93;;
23123;SDS011;11731;48.592;8.858;2022-11-20T09:09:48;1.20;;;1.10;;
23123;SDS011;11731;48.592;8.858;2022-11-20T09:12:15;1.50;;;1.37;;
23123;SDS011;11731;48.592;8.858;2022-11-20T09:14:42;1.10;;;1.00;;
23123;SDS011;11731;48.592;8.858;2022-11-20T09:18:12;2.30;;;1.00;;
23123;SDS011;11731;48.592;8.858;2022-11-20T09:20:27;0.97;;;0.90;;
23123;SDS011;11731;48.592;8.858;2022-11-20T09:22:55;1.00;;;0.90;;
23123;SDS011;11731;48.592;8.858;2022-11-20T09:25:22;0.80;;;0.80;;
23123;SDS011;11731;48.592;8.858;2022-11-20T09:27:54;0.90;;;0.80;;
23123;SDS011;11731;48.592;8.858;2022-11-20T09:30:21;1.10;;;0.90;;
23123;SDS011;11731;48.592;8.858;2022-11-20T09:32:48;1.00;;;0.90;;
23123;SDS011;11731;48.592;8.858;2022-11-20T09:35:15;1.27;;;1.17;;
23123;SDS011;11731;48.592;8.858;2022-11-20T09:37:44;0.90;;;0.90;;
23123;SDS011;11731;48.592;8.858;2022-11-20T09:40:17;0.90;;;0.70;;
23123;SDS011;11731;48.592;8.858;2022-11-20T09:45:42;1.07;;;0.80;;
23123;SDS011;11731;48.592;8.858;2022-11-20T09:55:10;1.13;;;0.80;;
23123;SDS011;11731;48.592;8.858;2022-11-20T09:57:42;0.83;;;0.83;;
23123;SDS011;11731;48.592;8.858;2022-11-20T10:00:12;1.10;;;0.80;;
23123;SDS011;11731;48.592;8.858;2022-11-20T10:03:21;0.93;;;0.87;;
23123;SDS011;11731;48.592;8.858;2022-11-20T10:05:41;0.97;;;0.87;;
23123;SDS011;11731;48.592;8.858;2022-11-20T10:08:14;0.70;;;0.70;;
23123;SDS011;11731;48.592;8.858;2022-11-20T10:10:46;1.40;;;1.03;;
23123;SDS011;11731;48.592;8.858;2022-11-20T10:13:28;0.90;;;0.90;;
23123;SDS011;11731;48.592;8.858;2022-11-20T10:16:11;0.77;;;0.77;;
23123;SDS011;11731;48.592;8.858;2022-11-20T10:18:54;0.70;;;0.70;;
23123;SDS011;11731;48.592;8.858;2022-11-20T10:22:03;1.10;;;1.00;;
23123;SDS011;11731;48.592;8.858;2022-11-20T10:24:44;1.27;;;0.80;;
23123;SDS011;11731;48.592;8.858;2022-11-20T10:27:25;0.60;;;0.60;;
23123;SDS011;11731;48.592;8.858;2022-11-20T10:30:08;1.20;;;1.00;;
23123;SDS011;11731;48.592;8.858;2022-11-20T10:32:37;0.63;;;0.63;;
23123;SDS011;11731;48.592;8.858;2022-11-20T10:35:06;0.70;;;0.70;;
23123;SDS011;11731;48.592;8.858;2022-11-20T10:37:44;0.60;;;0.60;;
23123;SDS011;11731;48.592;8.858;2022-11-20T10:40:18;0.80;;;0.77;;
23123;SDS011;11731;48.592;8.858;2022-11-20T10:42:52;0.80;;;0.80;;
23123;SDS011;11731;48.592;8.858;2022-11-20T10:45:30;0.90;;;0.80;;
23123;SDS011;11731;48.592;8.858;2022-11-20T10:48:15;1.10;;;0.90;;
23123;SDS011;11731;48.592;8.858;2022-11-20T10:50:49;1.00;;;0.90;;
23123;SDS011;11731;48.592;8.858;2022-11-20T10:53:40;0.87;;;0.87;;
23123;SDS011;11731;48.592;8.858;2022-11-20T10:56:16;0.90;;;0.80;;
23123;SDS011;11731;48.592;8.858;2022-11-20T10:58:52;1.43;;;1.00;;
23123;SDS011;11731;48.592;8.858;2022-11-20T11:01:46;3.27;;;0.90;;
23123;SDS011;11731;48.592;8.858;2022-11-20T11:04:26;0.97;;;0.80;;
23123;SDS011;11731;48.592;8.858;2022-11-20T11:07:04;0.70;;;0.70;;
23123;SDS011;11731;48.592;8.858;2022-11-20T11:09:38;1.43;;;0.97;;
23123;SDS011;11731;48.592;8.858;2022-11-20T11:12:08;1.43;;;1.23;;
23123;SDS011;11731;48.592;8.858;2022-11-20T11:14:44;1.50;;;1.00;;
23123;SDS011;11731;48.592;8.858;2022-11-20T11:17:28;0.93;;;0.83;;
23123;SDS011;11731;48.592;8.858;2022-11-20T11:19:57;0.70;;;0.70;;
23123;SDS011;11731;48.592;8.858;2022-11-20T11:25:31;1.00;;;0.80;;
23123;SDS011;11731;48.592;8.858;2022-11-20T11:28:19;1.47;;;1.00;;
23123;SDS011;11731;48.592;8.858;2022-11-20T11:30:53;1.63;;;1.00;;
23123;SDS011;11731;48.592;8.858;2022-11-20T11:33:21;2.40;;;0.90;;
23123;SDS011;11731;48.592;8.858;2022-11-20T11:35:50;4.33;;;0.90;;
23123;SDS011;11731;48.592;8.858;2022-11-20T11:38:21;2.00;;;1.10;;
23123;SDS011;11731;48.592;8.858;2022-11-20T11:40:53;1.23;;;0.80;;
23123;SDS011;11731;48.592;8.858;2022-11-20T11:43:21;3.27;;;0.90;;
23123;SDS011;11731;48.592;8.858;2022-11-20T11:46:14;3.57;;;0.90;;
23123;SDS011;11731;48.592;8.858;2022-11-20T11:48:57;1.77;;;0.87;;
23123;SDS011;11731;48.592;8.858;2022-11-20T11:51:26;1.67;;;0.80;;
23123;SDS011;11731;48.592;8.858;2022-11-20T11:53:58;1.80;;;0.90;;
23123;SDS011;11731;48.592;8.858;2022-11-20T11:56:29;2.13;;;1.00;;
23123;SDS011;11731;48.592;8.858;2022-11-20T11:59:00;4.10;;;0.70;;
23123;SDS011;11731;48.592;8.858;2022-11-20T12:01:36;1.13;;;0.97;;
23123;SDS011;11731;48.592;8.858;2022-11-20T12:04:10;1.70;;;0.87;;
23123;SDS011;11731;48.592;8.858;2022-11-20T12:06:43;0.60;;;0.60;;
23123;SDS011;11731;48.592;8.858;2022-11-20T12:09:14;2.33;;;1.37;;
23123;SDS011;11731;48.592;8.858;2022-11-20T12:11:45;1.80;;;1.00;;
23123;SDS011;11731;48.592;8.858;2022-11-20T12:14:16;0.60;;;0.60;;
23123;SDS011;11731;48.592;8.858;2022-11-20T12:16:50;1.37;;;1.00;;
23123;SDS011;11731;48.592;8.858;2022-11-20T12:19:18;2.03;;;0.73;;
23123;SDS011;11731;48.592;8.858;2022-11-20T12:21:48;1.27;;;0.97;;
23123;SDS011;11731;48.592;8.858;2022-11-20T12:24:34;3.07;;;1.03;;
23123;SDS011;11731;48.592;8.858;2022-11-20T12:30:14;2.07;;;0.90;;
23123;SDS011;11731;48.592;8.858;2022-11-20T12:35:41;2.83;;;0.80;;
23123;SDS011;11731;48.592;8.858;2022-11-20T12:38:27;0.93;;;0.83;;
23123;SDS011;11731;48.592;8.858;2022-11-20T12:41:15;1.07;;;0.73;;
23123;SDS011;11731;48.592;8.858;2022-11-20T12:44:06;2.77;;;0.90;;
23123;SDS011;11731;48.592;8.858;2022-11-20T12:47:17;0.80;;;0.80;;
23123;SDS011;11731;48.592;8.858;2022-11-20T12:49:52;1.73;;;1.10;;
23123;SDS011;11731;48.592;8.858;2022-11-20T12:52:28;1.90;;;0.73;;
23123;SDS011;11731;48.592;8.858;2022-11-20T12:55:14;1.20;;;1.00;;
23123;SDS011;11731;48.592;8.858;2022-11-20T12:57:50;0.97;;;0.60;;
23123;SDS011;11731;48.592;8.858;2022-11-20T13:00:20;0.70;;;0.70;;
23123;SDS011;11731;48.592;8.858;2022-11-20T13:05:48;2.97;;;0.60;;
23123;SDS011;11731;48.592;8.858;2022-11-20T13:08:21;0.80;;;0.70;;
23123;SDS011;11731;48.592;8.858;2022-11-20T13:10:51;0.63;;;0.50;;
23123;SDS011;11731;48.592;8.858;2022-11-20T13:13:29;1.97;;;0.70;;
23123;SDS011;11731;48.592;8.858;2022-11-20T13:16:02;1.03;;;0.80;;
23123;SDS011;11731;48.592;8.858;2022-11-20T13:18:35;0.83;;;0.70;;
23123;SDS011;11731;48.592;8.858;2022-11-20T13:21:14;0.60;;;0.60;;
23123;SDS011;11731;48.592;8.858;2022-11-20T13:23:42;1.77;;;1.00;;
23123;SDS011;11731;48.592;8.858;2022-11-20T13:26:17;0.93;;;0.80;;
23123;SDS011;11731;48.592;8.858;2022-11-20T13:28:46;1.60;;;0.80;;
23123;SDS011;11731;48.592;8.858;2022-11-20T13:31:28;1.30;;;0.80;;
23123;SDS011;11731;48.592;8.858;2022-11-20T13:33:57;1.10;;;1.00;;
23123;SDS011;11731;48.592;8.858;2022-11-20T13:36:29;1.70;;;1.27;;
23123;SDS011;11731;48.592;8.858;2022-11-20T13:38:57;3.43;;;1.27;;
23123;SDS011;11731;48.592;8.858;2022-11-20T13:41:25;2.50;;;1.20;;
23123;SDS011;11731;48.592;8.858;2022-11-20T13:43:54;3.17;;;1.27;;
23123;SDS011;11731;48.592;8.858;2022-11-20T13:46:34;1.60;;;1.10;;
23123;SDS011;11731;48.592;8.858;2022-11-20T13:49:17;2.57;;;1.13;;
23123;SDS011;11731;48.592;8.858;2022-11-20T13:51:51;1.63;;;1.13;;
23123;SDS011;11731;48.592;8.858;2022-11-20T13:54:31;1.47;;;0.90;;
23123;SDS011;11731;48.592;8.858;2022-11-20T13:57:30;2.90;;;1.40;;
23123;SDS011;11731;48.592;8.858;2022-11-20T14:00:09;1.67;;;1.20;;
23123;SDS011;11731;48.592;8.858;2022-11-20T14:02:38;2.57;;;0.90;;
23123;SDS011;11731;48.592;8.858;2022-11-20T14:05:06;2.03;;;0.90;;
23123;SDS011;11731;48.592;8.858;2022-11-20T14:07:51;2.50;;;1.00;;
23123;SDS011;11731;48.592;8.858;2022-11-20T14:10:20;1.47;;;1.17;;
23123;SDS011;11731;48.592;8.858;2022-11-20T14:12:49;2.17;;;1.00;;
23123;SDS011;11731;48.592;8.858;2022-11-20T14:15:26;1.53;;;1.00;;
23123;SDS011;11731;48.592;8.858;2022-11-20T14:17:55;1.20;;;1.00;;
23123;SDS011;11731;48.592;8.858;2022-11-20T14:20:23;1.37;;;1.00;;
23123;SDS011;11731;48.592;8.858;2022-11-20T14:22:54;1.37;;;1.10;;
23123;SDS011;11731;48.592;8.858;2022-11-20T14:25:22;3.60;;;1.20;;
23123;SDS011;11731;48.592;8.858;2022-11-20T14:27:52;2.23;;;1.00;;
23123;SDS011;11731;48.592;8.858;2022-11-20T14:30:22;1.27;;;1.00;;
23123;SDS011;11731;48.592;8.858;2022-11-20T14:32:50;1.10;;;1.00;;
23123;SDS011;11731;48.592;8.858;2022-11-20T14:35:21;2.27;;;1.43;;
23123;SDS011;11731;48.592;8.858;2022-11-20T14:37:51;1.93;;;1.40;;
23123;SDS011;11731;48.592;8.858;2022-11-20T14:40:27;2.90;;;1.57;;
23123;SDS011;11731;48.592;8.858;2022-11-20T14:42:55;1.87;;;1.50;;
23123;SDS011;11731;48.592;8.858;2022-11-20T14:45:23;1.30;;;1.20;;
23123;SDS011;11731;48.592;8.858;2022-11-20T14:47:51;1.40;;;1.13;;
23123;SDS011;11731;48.592;8.858;2022-11-20T14:50:20;1.23;;;1.13;;
23123;SDS011;11731;48.592;8.858;2022-11-20T14:52:50;1.70;;;1.20;;
23123;SDS011;11731;48.592;8.858;2022-11-20T14:55:29;1.50;;;1.40;;
23123;SDS011;11731;48.592;8.858;2022-11-20T14:57:58;2.63;;;1.20;;
23123;SDS011;11731;48.592;8.858;2022-11-20T15:00:28;1.67;;;1.37;;
23123;SDS011;11731;48.592;8.858;2022-11-20T15:02:55;1.77;;;1.20;;
23123;SDS011;11731;48.592;8.858;2022-11-20T15:05:23;1.90;;;1.20;;
23123;SDS011;11731;48.592;8.858;2022-11-20T15:07:52;2.10;;;1.60;;
23123;SDS011;11731;48.592;8.858;2022-11-20T15:10:33;1.20;;;1.10;;
23123;SDS011;11731;48.592;8.858;2022-11-20T15:13:01;2.23;;;1.40;;
23123;SDS011;11731;48.592;8.858;2022-11-20T15:15:31;2.60;;;1.20;;
23123;SDS011;11731;48.592;8.858;2022-11-20T15:18:01;1.40;;;1.00;;
23123;SDS011;11731;48.592;8.858;2022-11-20T15:20:30;2.33;;;1.80;;
23123;SDS011;11731;48.592;8.858;2022-11-20T15:22:58;3.20;;;1.30;;
23123;SDS011;11731;48.592;8.858;2022-11-20T15:25:25;1.93;;;1.43;;
23123;SDS011;11731;48.592;8.858;2022-11-20T15:27:55;2.33;;;2.10;;
23123;SDS011;11731;48.592;8.858;2022-11-20T15:30:23;3.13;;;2.10;;
23123;SDS011;11731;48.592;8.858;2022-11-20T15:32:50;2.87;;;2.00;;
23123;SDS011;11731;48.592;8.858;2022-11-20T15:35:16;2.53;;;2.00;;
23123;SDS011;11731;48.592;8.858;2022-11-20T15:37:43;2.83;;;2.13;;
23123;SDS011;11731;48.592;8.858;2022-11-20T15:40:11;3.53;;;2.40;;